createdAt,value
2023-07-15T00:02:18.933Z,8.90
2023-07-15T00:05:25.331Z,9.50
2023-07-15T00:08:29.118Z,9.70
2023-07-15T00:11:35.836Z,9.07
2023-07-15T00:14:40.658Z,9.70
2023-07-15T00:17:44.316Z,9.30
2023-07-15T00:20:48.135Z,9.53
2023-07-15T00:23:54.514Z,9.23
2023-07-15T00:27:00.090Z,9.67
2023-07-15T00:30:05.364Z,10.10
2023-07-15T00:33:14.725Z,10.47
2023-07-15T00:36:18.670Z,10.30
2023-07-15T00:39:21.910Z,9.83
2023-07-15T00:43:03.654Z,9.77
2023-07-15T00:46:50.255Z,10.60
2023-07-15T00:49:53.669Z,9.90
2023-07-15T00:52:56.864Z,9.73
2023-07-15T00:56:00.123Z,9.47
2023-07-15T00:59:04.342Z,10.07
2023-07-15T01:02:10.417Z,10.37
2023-07-15T01:05:13.966Z,9.87
2023-07-15T01:08:17.115Z,9.87
2023-07-15T01:11:21.179Z,9.33
2023-07-15T01:14:24.512Z,9.33
2023-07-15T01:17:29.630Z,9.03
2023-07-15T01:20:33.632Z,10.23
2023-07-15T01:23:38.445Z,9.03
2023-07-15T01:26:41.559Z,9.17
2023-07-15T01:29:45.513Z,9.17
2023-07-15T01:32:48.902Z,9.57
2023-07-15T01:35:52.255Z,8.93
2023-07-15T01:38:57.198Z,9.10
2023-07-15T01:42:00.217Z,9.10
2023-07-15T01:45:04.829Z,8.70
2023-07-15T01:48:08.900Z,9.27
2023-07-15T01:51:12.210Z,9.60
2023-07-15T01:54:16.702Z,9.87
2023-07-15T01:57:19.732Z,9.00
2023-07-15T02:00:22.826Z,9.20
2023-07-15T02:03:26.032Z,9.10
2023-07-15T02:06:29.306Z,10.03
2023-07-15T02:09:35.516Z,9.57
2023-07-15T02:12:38.975Z,9.50
2023-07-15T02:15:42.079Z,9.23
2023-07-15T02:18:45.306Z,9.60
2023-07-15T02:21:48.397Z,8.40
2023-07-15T02:24:53.022Z,9.40
2023-07-15T02:27:56.200Z,9.73
2023-07-15T02:30:59.431Z,9.63
2023-07-15T02:34:02.602Z,9.50
2023-07-15T02:37:05.884Z,9.40
2023-07-15T02:40:11.767Z,9.73
2023-07-15T02:43:14.987Z,9.53
2023-07-15T02:46:18.291Z,8.53
2023-07-15T02:49:21.639Z,9.50
2023-07-15T02:52:25.645Z,9.23
2023-07-15T02:55:31.311Z,9.27
2023-07-15T02:58:35.265Z,9.40
2023-07-15T03:01:39.029Z,9.60
2023-07-15T03:04:42.231Z,9.20
2023-07-15T03:07:46.357Z,10.27
2023-07-15T03:10:51.525Z,9.93
2023-07-15T03:13:55.637Z,10.83
2023-07-15T03:16:58.755Z,11.30
2023-07-15T03:20:01.905Z,12.27
2023-07-15T03:23:05.439Z,12.33
2023-07-15T03:26:10.075Z,11.57
2023-07-15T03:29:13.284Z,11.80
2023-07-15T03:32:16.934Z,13.27
2023-07-15T03:35:19.956Z,24.17
2023-07-15T03:38:23.105Z,27.27
2023-07-15T03:41:27.870Z,17.77
2023-07-15T03:44:30.870Z,19.73
2023-07-15T03:47:35.171Z,14.77
2023-07-15T03:50:38.304Z,11.87
2023-07-15T03:53:41.690Z,12.40
2023-07-15T03:56:46.189Z,11.07
2023-07-15T03:59:49.261Z,11.30
2023-07-15T04:02:55.437Z,12.37
2023-07-15T04:05:58.589Z,12.07
2023-07-15T04:09:01.698Z,16.83
2023-07-15T04:12:09.475Z,24.30
2023-07-15T04:15:12.884Z,24.27
2023-07-15T04:18:17.995Z,21.73
2023-07-15T04:21:21.013Z,21.73
2023-07-15T04:24:24.032Z,31.07
2023-07-15T04:27:28.485Z,28.70
2023-07-15T04:30:31.632Z,21.53
2023-07-15T04:33:34.990Z,19.07
2023-07-15T04:36:38.175Z,18.60
2023-07-15T04:39:41.389Z,16.73
2023-07-15T04:42:46.829Z,15.67
2023-07-15T04:45:50.139Z,16.17
2023-07-15T04:48:53.667Z,12.80
2023-07-15T04:51:56.803Z,14.73
2023-07-15T04:55:00.205Z,14.03
2023-07-15T04:58:05.055Z,17.47
2023-07-15T05:01:08.656Z,26.40
2023-07-15T05:04:11.813Z,19.53
2023-07-15T05:07:15.075Z,14.37
2023-07-15T05:10:18.126Z,15.83
2023-07-15T05:13:23.099Z,13.83
2023-07-15T05:16:26.385Z,14.60
2023-07-15T05:19:29.591Z,16.03
2023-07-15T05:22:32.713Z,14.40
2023-07-15T05:25:36.927Z,14.00
2023-07-15T05:28:41.597Z,19.30
2023-07-15T05:31:47.072Z,17.43
2023-07-15T05:34:50.742Z,15.47
2023-07-15T05:37:53.838Z,15.00
2023-07-15T05:40:58.226Z,15.70
2023-07-15T05:44:03.135Z,14.20
2023-07-15T05:47:06.675Z,14.00
2023-07-15T05:50:10.998Z,13.37
2023-07-15T05:53:14.108Z,14.10
2023-07-15T05:56:17.680Z,14.17
2023-07-15T05:59:23.281Z,15.30
2023-07-15T06:02:27.888Z,17.93
2023-07-15T06:05:31.986Z,14.60
2023-07-15T06:08:35.141Z,13.27
2023-07-15T06:11:38.152Z,13.27
2023-07-15T06:14:42.674Z,13.13
2023-07-15T06:17:46.173Z,13.63
2023-07-15T06:20:50.122Z,14.20
2023-07-15T06:23:53.183Z,13.17
2023-07-15T06:26:56.409Z,11.87
2023-07-15T06:30:01.722Z,11.40
2023-07-15T06:33:04.944Z,11.60
2023-07-15T06:36:09.074Z,13.30
2023-07-15T06:39:12.189Z,16.03
2023-07-15T06:42:15.479Z,13.50
2023-07-15T06:45:21.717Z,13.17
2023-07-15T06:48:25.198Z,12.13
2023-07-15T06:51:28.271Z,12.77
2023-07-15T06:54:33.871Z,11.97
2023-07-15T06:57:36.939Z,11.93
2023-07-15T07:00:42.486Z,11.70
2023-07-15T07:03:46.462Z,12.30
2023-07-15T07:06:49.584Z,11.90
2023-07-15T07:09:52.613Z,11.63
2023-07-15T07:12:55.660Z,11.57
2023-07-15T07:16:00.672Z,10.63
2023-07-15T07:19:03.995Z,10.70
2023-07-15T07:22:07.296Z,9.93
2023-07-15T07:25:11.369Z,11.30
2023-07-15T07:28:14.481Z,11.70
2023-07-15T07:31:20.000Z,10.93
2023-07-15T07:34:23.411Z,10.67
2023-07-15T07:37:26.935Z,11.00
2023-07-15T07:40:30.242Z,11.70
2023-07-15T07:43:33.633Z,11.40
2023-07-15T07:46:38.433Z,11.87
2023-07-15T07:49:41.619Z,11.67
2023-07-15T07:52:44.756Z,12.40
2023-07-15T07:55:47.771Z,12.93
2023-07-15T07:58:55.981Z,12.30
2023-07-15T08:02:00.452Z,16.60
2023-07-15T08:05:03.798Z,17.23
2023-07-15T08:08:06.956Z,17.30
2023-07-15T08:11:10.009Z,15.97
2023-07-15T08:14:13.108Z,17.60
2023-07-15T08:17:17.985Z,18.10
2023-07-15T08:20:21.065Z,20.77
2023-07-15T08:23:24.108Z,20.30
2023-07-15T08:26:27.471Z,22.03
2023-07-15T08:29:30.535Z,23.20
2023-07-15T08:32:34.978Z,23.70
2023-07-15T08:35:38.223Z,23.20
2023-07-15T08:38:41.443Z,24.90
2023-07-15T08:41:45.019Z,26.30
2023-07-15T08:44:48.659Z,25.27
2023-07-15T08:47:53.508Z,24.20
2023-07-15T08:50:59.380Z,23.90
2023-07-15T08:54:03.681Z,23.87
2023-07-15T08:57:08.941Z,24.87
2023-07-15T09:00:13.405Z,27.40
2023-07-15T09:03:18.065Z,31.07
2023-07-15T09:06:21.200Z,32.90
2023-07-15T09:09:33.318Z,34.27
2023-07-15T09:12:36.369Z,34.10
2023-07-15T09:15:39.453Z,34.70
2023-07-15T09:18:45.479Z,37.07
2023-07-15T09:21:54.158Z,43.93
2023-07-15T09:25:04.821Z,44.00
2023-07-15T09:28:10.730Z,43.87
2023-07-15T09:31:23.953Z,41.57
2023-07-15T09:34:28.841Z,40.90
2023-07-15T09:37:33.241Z,40.20
2023-07-15T09:40:43.229Z,42.40
2023-07-15T09:43:48.140Z,40.60
2023-07-15T09:46:51.527Z,39.70
2023-07-15T09:49:56.165Z,38.13
2023-07-15T09:53:01.376Z,37.93
2023-07-15T09:56:07.791Z,37.30
2023-07-15T09:59:17.691Z,38.47
2023-07-15T10:02:34.624Z,38.17
2023-07-15T10:05:39.807Z,38.97
2023-07-15T10:08:43.781Z,35.80
2023-07-15T10:11:47.264Z,36.60
2023-07-15T10:14:51.040Z,37.33
2023-07-15T10:17:54.294Z,34.47
2023-07-15T10:21:00.180Z,34.73
2023-07-15T10:24:11.517Z,34.40
2023-07-15T10:27:16.191Z,32.50
2023-07-15T10:30:24.934Z,31.80
2023-07-15T10:33:28.248Z,31.97
2023-07-15T10:36:40.376Z,30.27
2023-07-15T10:39:44.214Z,31.53
2023-07-15T10:42:47.345Z,30.00
2023-07-15T10:45:54.020Z,29.83
2023-07-15T10:48:57.166Z,30.40
2023-07-15T10:58:09.542Z,28.23
2023-07-15T11:01:14.153Z,27.67
2023-07-15T11:04:21.274Z,26.00
2023-07-15T11:07:26.727Z,26.30
2023-07-15T11:10:35.169Z,25.03
2023-07-15T11:13:39.223Z,24.90
2023-07-15T11:16:42.377Z,24.60
2023-07-15T11:19:45.482Z,23.50
2023-07-15T11:22:49.989Z,24.20
2023-07-15T11:25:53.109Z,22.60
2023-07-15T11:28:58.932Z,23.43
2023-07-15T11:32:03.550Z,22.10
2023-07-15T11:35:14.192Z,21.93
2023-07-15T11:38:30.757Z,21.47
2023-07-15T11:41:35.426Z,22.30
2023-07-15T11:44:38.764Z,21.83
2023-07-15T11:47:44.117Z,20.57
2023-07-15T11:50:47.453Z,19.63
2023-07-15T11:53:54.688Z,19.17
2023-07-15T11:56:59.911Z,19.10
2023-07-15T12:00:03.850Z,19.87
2023-07-15T12:03:10.072Z,18.30
2023-07-15T12:06:17.818Z,19.17
2023-07-15T12:09:23.935Z,18.23
2023-07-15T12:12:26.993Z,18.77
2023-07-15T12:15:30.132Z,17.20
2023-07-15T12:18:33.176Z,17.00
2023-07-15T12:21:36.374Z,16.63
2023-07-15T12:24:42.943Z,16.57
2023-07-15T12:27:48.384Z,15.90
2023-07-15T12:30:51.525Z,15.93
2023-07-15T12:33:54.668Z,15.67
2023-07-15T12:36:59.479Z,15.53
2023-07-15T12:40:04.530Z,15.60
2023-07-15T12:43:07.623Z,14.93
2023-07-15T12:46:11.163Z,15.07
2023-07-15T12:49:14.285Z,14.20
2023-07-15T12:52:17.466Z,16.70
2023-07-15T12:55:21.908Z,16.60
2023-07-15T12:58:25.694Z,16.00
2023-07-15T13:01:28.971Z,16.13
2023-07-15T13:04:32.352Z,17.10
2023-07-15T13:07:35.551Z,17.13
2023-07-15T13:10:40.097Z,17.10
2023-07-15T13:13:43.165Z,16.93
2023-07-15T13:16:46.335Z,16.83
2023-07-15T13:19:49.411Z,15.57
2023-07-15T13:22:52.557Z,15.53
2023-07-15T13:25:56.996Z,15.23
2023-07-15T13:29:00.128Z,16.27
2023-07-15T13:32:03.464Z,15.97
2023-07-15T13:35:07.186Z,15.77
2023-07-15T13:38:10.211Z,16.10
2023-07-15T13:41:14.778Z,15.23
2023-07-15T13:44:18.050Z,23.73
2023-07-15T13:47:21.252Z,25.10
2023-07-15T13:50:24.467Z,25.30
2023-07-15T13:53:27.596Z,26.00
2023-07-15T13:56:32.251Z,25.60
2023-07-15T13:59:35.353Z,25.70
2023-07-15T14:02:38.487Z,27.87
2023-07-15T14:05:41.688Z,28.80
2023-07-15T14:08:44.782Z,31.40
2023-07-15T14:11:49.367Z,31.70
2023-07-15T14:14:52.526Z,31.47
2023-07-15T14:17:57.440Z,31.97
2023-07-15T14:21:00.605Z,32.27
2023-07-15T14:24:05.295Z,32.03
2023-07-15T14:27:11.792Z,32.37
2023-07-15T14:30:15.073Z,33.80
2023-07-15T14:33:18.201Z,33.40
2023-07-15T14:36:21.286Z,32.73
2023-07-15T14:39:24.502Z,34.60
2023-07-15T14:42:29.214Z,33.57
2023-07-15T14:45:32.645Z,32.80
2023-07-15T14:48:36.347Z,33.37
2023-07-15T14:51:39.514Z,33.20
2023-07-15T14:54:42.624Z,33.53
2023-07-15T14:57:47.400Z,33.50
2023-07-15T15:00:50.589Z,34.17
2023-07-15T15:03:53.776Z,32.73
2023-07-15T15:06:56.934Z,32.93
2023-07-15T15:09:59.990Z,31.40
2023-07-15T15:13:04.537Z,34.87
2023-07-15T15:16:11.510Z,34.50
2023-07-15T15:19:14.630Z,34.93
2023-07-15T15:22:17.855Z,32.80
2023-07-15T15:25:20.925Z,34.10
2023-07-15T15:28:25.484Z,33.60
2023-07-15T15:31:28.731Z,34.00
2023-07-15T15:34:31.951Z,35.20
2023-07-15T15:37:35.541Z,33.37
2023-07-15T15:40:38.744Z,33.37
2023-07-15T15:43:43.345Z,34.40
2023-07-15T15:46:46.457Z,33.07
2023-07-15T15:49:49.595Z,32.37
2023-07-15T15:52:52.702Z,34.13
2023-07-15T15:55:55.889Z,33.43
2023-07-15T15:59:00.455Z,32.57
2023-07-15T16:02:03.805Z,35.63
2023-07-15T16:05:07.933Z,36.47
2023-07-15T16:08:10.987Z,36.70
2023-07-15T16:11:14.556Z,39.33
2023-07-15T16:14:19.413Z,47.30
2023-07-15T16:17:22.630Z,46.87
2023-07-15T16:20:25.899Z,45.77
2023-07-15T16:23:28.917Z,45.97
2023-07-15T16:26:32.011Z,46.10
2023-07-15T16:29:36.607Z,46.07
2023-07-15T16:32:39.639Z,45.80
2023-07-15T16:35:42.814Z,46.53
2023-07-15T16:38:45.850Z,45.97
2023-07-15T16:41:49.160Z,48.93
2023-07-15T16:44:53.596Z,50.07
2023-07-15T16:47:56.905Z,53.53
2023-07-15T16:51:00.018Z,50.50
2023-07-15T16:54:03.121Z,51.47
2023-07-15T16:57:06.759Z,53.23
2023-07-15T17:00:12.743Z,53.40
2023-07-15T17:03:15.916Z,53.90
2023-07-15T17:06:19.125Z,54.50
2023-07-15T17:09:32.404Z,54.40
2023-07-15T17:12:35.793Z,55.90
2023-07-15T17:15:40.289Z,58.13
2023-07-15T17:18:43.350Z,57.53
2023-07-15T17:21:46.571Z,59.20
2023-07-15T17:24:52.716Z,61.03
2023-07-15T17:27:55.959Z,58.27
2023-07-15T17:31:00.414Z,60.07
2023-07-15T17:34:03.682Z,57.77
2023-07-15T17:37:07.577Z,58.60
2023-07-15T17:40:11.362Z,56.20
2023-07-15T17:43:14.403Z,56.50
2023-07-15T17:46:18.977Z,53.07
2023-07-15T17:49:22.102Z,54.97
2023-07-15T17:52:25.482Z,51.40
2023-07-15T17:55:28.536Z,49.37
2023-07-15T17:58:31.699Z,48.57
2023-07-15T18:01:36.194Z,47.77
2023-07-15T18:04:40.128Z,47.03
2023-07-15T18:07:43.199Z,45.97
2023-07-15T18:10:46.305Z,45.97
2023-07-15T18:13:49.397Z,47.03
2023-07-15T18:16:55.168Z,48.00
2023-07-15T18:19:58.198Z,46.10
2023-07-15T18:23:01.405Z,45.23
2023-07-15T18:26:04.541Z,43.47
2023-07-15T18:29:07.592Z,44.00
2023-07-15T18:32:12.820Z,42.00
2023-07-15T18:35:16.021Z,41.00
2023-07-15T18:38:19.220Z,40.40
2023-07-15T18:41:22.283Z,37.17
2023-07-15T18:44:25.474Z,20.87
2023-07-15T18:47:29.979Z,14.77
2023-07-15T18:50:33.098Z,12.10
2023-07-15T18:53:36.167Z,11.80
2023-07-15T18:56:39.257Z,10.27
2023-07-15T18:59:42.488Z,12.07
2023-07-15T19:02:47.110Z,11.30
2023-07-15T19:05:51.587Z,10.60
2023-07-15T19:08:54.698Z,11.20
2023-07-15T19:11:57.808Z,10.10
2023-07-15T19:15:00.907Z,11.63
2023-07-15T19:18:05.495Z,12.00
2023-07-15T19:21:08.684Z,11.70
2023-07-15T19:27:37.302Z,10.63
2023-07-15T19:30:40.593Z,10.60
2023-07-15T19:33:46.932Z,10.47
2023-07-15T19:36:50.209Z,11.10
2023-07-15T19:39:53.239Z,10.80
2023-07-15T19:42:56.346Z,11.23
2023-07-15T19:45:59.492Z,11.10
2023-07-15T19:49:04.312Z,10.70
2023-07-15T19:52:07.903Z,12.90
2023-07-15T19:55:10.951Z,12.20
2023-07-15T19:58:14.086Z,11.87
2023-07-15T20:01:17.136Z,10.93
2023-07-15T20:04:21.741Z,12.20
2023-07-15T20:07:24.912Z,12.07
2023-07-15T20:10:28.152Z,12.13
2023-07-15T20:13:31.265Z,12.20
2023-07-15T20:16:36.065Z,11.53
2023-07-15T20:19:40.967Z,12.13
2023-07-15T20:22:44.242Z,12.07
2023-07-15T20:25:47.623Z,11.17
2023-07-15T20:28:50.818Z,12.50
2023-07-15T20:31:53.967Z,11.90
2023-07-15T20:34:58.788Z,12.10
2023-07-15T20:38:01.866Z,12.20
2023-07-15T20:41:06.036Z,12.13
2023-07-15T20:44:09.365Z,12.67
2023-07-15T20:47:12.449Z,12.90
2023-07-15T20:50:18.183Z,12.50
2023-07-15T20:53:21.412Z,13.20
2023-07-15T20:56:24.571Z,13.47
2023-07-15T20:59:27.649Z,13.40
2023-07-15T21:02:30.771Z,12.27
2023-07-15T21:05:35.441Z,13.10
2023-07-15T21:08:38.639Z,13.10
2023-07-15T21:11:42.080Z,13.40
2023-07-15T21:14:45.157Z,12.60
2023-07-15T21:17:48.269Z,15.00
2023-07-15T21:20:54.255Z,16.87
2023-07-15T21:23:57.865Z,13.13
2023-07-15T21:27:00.945Z,14.20
2023-07-15T21:30:05.175Z,13.80
2023-07-15T21:33:08.194Z,14.20
2023-07-15T21:36:12.846Z,12.77
2023-07-15T21:39:16.545Z,13.20
2023-07-15T21:42:19.647Z,13.50
2023-07-15T21:45:22.727Z,13.37
2023-07-15T21:48:25.807Z,13.03
2023-07-15T21:51:30.273Z,13.10
2023-07-15T21:54:33.275Z,13.43
2023-07-15T21:57:36.481Z,12.93
2023-07-15T22:00:40.012Z,12.50
2023-07-15T22:03:43.206Z,13.30
2023-07-15T22:06:47.769Z,14.00
2023-07-15T22:09:50.789Z,14.13
2023-07-15T22:12:53.846Z,14.00
2023-07-15T22:15:57.171Z,12.83
2023-07-15T22:19:00.242Z,13.50
2023-07-15T22:22:05.007Z,13.90
2023-07-15T22:25:09.151Z,13.13
2023-07-15T22:28:12.249Z,13.20
2023-07-15T22:31:15.364Z,12.53
2023-07-15T22:34:18.517Z,13.43
2023-07-15T22:37:23.058Z,14.40
2023-07-15T22:40:26.109Z,13.60
2023-07-15T22:43:29.231Z,13.87
2023-07-15T22:46:32.345Z,13.70
2023-07-15T22:49:35.429Z,13.20
2023-07-15T22:52:40.824Z,12.67
2023-07-15T22:55:43.922Z,12.53
2023-07-15T22:58:47.076Z,12.57
2023-07-15T23:01:50.450Z,13.27
2023-07-15T23:04:53.653Z,12.57
2023-07-15T23:07:58.092Z,12.30
2023-07-15T23:11:01.280Z,12.57
2023-07-15T23:14:04.460Z,11.83
2023-07-15T23:17:08.055Z,11.77
2023-07-15T23:20:11.551Z,12.47
2023-07-15T23:23:17.932Z,11.50
2023-07-15T23:26:21.516Z,11.80
2023-07-15T23:29:24.612Z,10.20
2023-07-15T23:32:29.816Z,10.97
2023-07-15T23:35:33.492Z,10.27
2023-07-15T23:38:38.810Z,10.30
2023-07-15T23:41:41.974Z,10.03
2023-07-15T23:44:45.082Z,9.90
2023-07-15T23:47:48.236Z,9.90
2023-07-15T23:50:51.421Z,9.90
2023-07-15T23:53:55.909Z,10.27
2023-07-15T23:56:59.007Z,9.40
